createdAt,value
2023-04-24T00:02:25.175Z,5.68
2023-04-24T00:04:52.338Z,5.43
2023-04-24T00:07:23.767Z,5.78
2023-04-24T00:09:52.751Z,5.43
2023-04-24T00:12:19.468Z,5.95
2023-04-24T00:14:46.087Z,5.30
2023-04-24T00:17:14.928Z,5.93
2023-04-24T00:19:41.794Z,5.85
2023-04-24T00:22:11.964Z,5.47
2023-04-24T00:24:38.666Z,5.50
2023-04-24T00:27:07.647Z,6.22
2023-04-24T00:29:34.327Z,5.63
2023-04-24T00:32:01.208Z,5.75
2023-04-24T00:34:29.996Z,6.18
2023-04-24T00:36:56.615Z,5.90
2023-04-24T00:39:23.973Z,5.88
2023-04-24T00:41:51.981Z,5.82
2023-04-24T00:44:20.981Z,6.13
2023-04-24T00:46:48.288Z,6.22
2023-04-24T00:49:17.321Z,5.93
2023-04-24T00:51:46.671Z,5.85
2023-04-24T00:54:14.112Z,6.47
2023-04-24T00:56:41.396Z,6.25
2023-04-24T00:59:10.560Z,6.00
2023-04-24T01:01:37.220Z,5.90
2023-04-24T01:04:06.248Z,6.07
2023-04-24T01:06:40.703Z,5.82
2023-04-24T01:09:09.354Z,6.40
2023-04-24T01:11:37.422Z,5.95
2023-04-24T01:14:04.124Z,5.72
2023-04-24T01:16:30.927Z,5.90
2023-04-24T01:19:00.003Z,6.32
2023-04-24T01:21:28.867Z,5.70
2023-04-24T01:23:57.710Z,6.20
2023-04-24T01:26:26.613Z,6.47
2023-04-24T01:28:55.590Z,6.10
2023-04-24T01:31:24.451Z,5.55
2023-04-24T01:33:51.997Z,6.03
2023-04-24T01:36:24.679Z,5.88
2023-04-24T01:38:52.626Z,5.88
2023-04-24T01:41:19.370Z,6.32
2023-04-24T01:43:48.281Z,5.72
2023-04-24T01:46:17.551Z,6.28
2023-04-24T01:48:46.468Z,5.75
2023-04-24T01:51:13.112Z,6.05
2023-04-24T01:53:39.798Z,5.60
2023-04-24T01:56:06.535Z,5.43
2023-04-24T01:58:33.329Z,5.47
2023-04-24T02:01:00.740Z,5.45
2023-04-24T02:03:30.285Z,5.47
2023-04-24T02:05:59.182Z,5.00
2023-04-24T02:08:27.967Z,5.40
2023-04-24T02:10:55.080Z,5.57
2023-04-24T02:13:21.781Z,5.50
2023-04-24T02:15:50.607Z,5.72
2023-04-24T02:18:18.017Z,5.25
2023-04-24T02:20:44.685Z,5.40
2023-04-24T02:23:11.258Z,5.05
2023-04-24T02:25:40.431Z,5.35
2023-04-24T02:28:09.326Z,5.20
2023-04-24T02:30:35.988Z,5.40
2023-04-24T02:33:07.787Z,5.05
2023-04-24T02:35:34.476Z,5.70
2023-04-24T02:38:01.085Z,5.57
2023-04-24T02:40:27.717Z,5.78
2023-04-24T02:42:56.531Z,5.20
2023-04-24T02:45:23.204Z,5.15
2023-04-24T02:47:54.661Z,5.90
2023-04-24T02:50:21.581Z,5.10
2023-04-24T02:52:48.186Z,5.50
2023-04-24T02:55:19.655Z,5.05
2023-04-24T02:57:49.181Z,5.05
2023-04-24T03:00:18.547Z,4.90
2023-04-24T03:02:45.286Z,5.13
2023-04-24T03:05:14.574Z,5.30
2023-04-24T03:07:41.378Z,5.75
2023-04-24T03:10:11.500Z,5.35
2023-04-24T03:12:38.164Z,5.40
2023-04-24T03:15:07.491Z,5.00
2023-04-24T03:17:36.547Z,6.03
2023-04-24T03:20:03.835Z,5.20
2023-04-24T03:22:33.630Z,5.00
2023-04-24T03:25:00.330Z,5.20
2023-04-24T03:27:29.265Z,5.85
2023-04-24T03:29:58.837Z,5.78
2023-04-24T03:32:25.522Z,5.13
2023-04-24T03:34:54.472Z,5.28
2023-04-24T03:37:24.245Z,5.65
2023-04-24T03:39:53.073Z,5.13
2023-04-24T03:42:19.774Z,5.32
2023-04-24T03:44:46.599Z,5.07
2023-04-24T03:47:16.128Z,5.45
2023-04-24T03:49:43.240Z,5.40
2023-04-24T03:52:12.877Z,5.20
2023-04-24T03:54:39.623Z,5.00
2023-04-24T03:57:08.454Z,5.30
2023-04-24T03:59:39.938Z,5.00
2023-04-24T04:02:08.972Z,5.40
2023-04-24T04:04:35.806Z,5.32
2023-04-24T04:07:04.800Z,5.00
2023-04-24T04:09:33.634Z,5.00
2023-04-24T04:12:01.472Z,5.50
2023-04-24T04:14:28.592Z,5.45
2023-04-24T04:16:55.370Z,5.30
2023-04-24T04:19:26.814Z,5.20
2023-04-24T04:21:54.574Z,6.00
2023-04-24T04:24:25.133Z,5.00
2023-04-24T04:26:53.302Z,5.45
2023-04-24T04:29:22.155Z,5.43
2023-04-24T04:31:48.936Z,5.53
2023-04-24T04:34:18.034Z,5.38
2023-04-24T04:36:45.317Z,5.20
2023-04-24T04:39:12.003Z,5.03
2023-04-24T04:41:41.597Z,5.22
2023-04-24T04:44:09.907Z,5.47
2023-04-24T04:46:41.283Z,5.30
2023-04-24T04:49:10.145Z,5.55
2023-04-24T04:51:43.033Z,5.13
2023-04-24T04:54:09.917Z,4.93
2023-04-24T04:56:39.325Z,5.07
2023-04-24T04:59:08.424Z,5.13
2023-04-24T05:01:39.758Z,4.97
2023-04-24T05:04:08.763Z,5.72
2023-04-24T05:06:35.507Z,5.35
2023-04-24T05:09:02.206Z,5.30
2023-04-24T05:11:31.122Z,5.13
2023-04-24T05:13:57.828Z,5.30
2023-04-24T05:16:24.602Z,5.05
2023-04-24T05:18:51.230Z,5.07
2023-04-24T05:21:20.324Z,5.25
2023-04-24T05:23:46.980Z,5.25
2023-04-24T05:26:14.584Z,5.40
2023-04-24T05:28:41.837Z,5.57
2023-04-24T05:31:10.850Z,5.13
2023-04-24T05:33:37.524Z,4.68
2023-04-24T05:36:07.277Z,5.25
2023-04-24T05:38:34.330Z,5.07
2023-04-24T05:41:03.358Z,5.40
2023-04-24T05:43:34.734Z,6.30
2023-04-24T05:46:03.877Z,7.43
2023-04-24T05:48:33.219Z,6.60
2023-04-24T05:50:59.967Z,6.50
2023-04-24T05:53:28.787Z,6.65
2023-04-24T05:55:55.529Z,6.25
2023-04-24T05:58:25.423Z,6.22
2023-04-24T06:00:54.793Z,7.15
2023-04-24T06:03:24.073Z,6.85
2023-04-24T06:05:58.649Z,6.38
2023-04-24T06:08:27.528Z,7.43
2023-04-24T06:10:54.257Z,7.47
2023-04-24T06:13:21.179Z,6.78
2023-04-24T06:15:49.806Z,6.80
2023-04-24T06:18:16.784Z,7.28
2023-04-24T06:20:50.747Z,7.75
2023-04-24T06:23:17.529Z,7.30
2023-04-24T06:25:46.576Z,8.05
2023-04-24T06:28:18.496Z,7.40
2023-04-24T06:30:45.144Z,7.82
2023-04-24T06:35:45.820Z,8.65
2023-04-24T06:38:14.672Z,8.02
2023-04-24T06:40:46.434Z,8.70
2023-04-24T06:43:18.652Z,8.05
2023-04-24T06:45:47.584Z,7.72
2023-04-24T06:48:16.890Z,7.43
2023-04-24T06:50:48.180Z,9.18
2023-04-24T06:55:45.771Z,9.05
2023-04-24T06:58:17.156Z,8.60
2023-04-24T07:00:46.064Z,8.30
2023-04-24T07:03:12.936Z,7.55
2023-04-24T07:05:40.078Z,6.78
2023-04-24T07:08:07.856Z,8.52
2023-04-24T07:10:35.167Z,8.85
2023-04-24T07:13:03.971Z,8.52
2023-04-24T07:15:30.886Z,8.15
2023-04-24T07:17:59.734Z,8.43
2023-04-24T07:20:28.670Z,8.25
2023-04-24T07:22:55.369Z,7.00
2023-04-24T07:25:22.468Z,6.97
2023-04-24T07:27:50.101Z,7.07
2023-04-24T07:30:22.145Z,7.45
2023-04-24T07:32:50.985Z,8.20
2023-04-24T07:35:17.662Z,8.05
2023-04-24T07:37:46.941Z,7.05
2023-04-24T07:40:19.743Z,7.05
2023-04-24T07:42:52.564Z,8.00
2023-04-24T07:45:21.498Z,7.30
2023-04-24T07:47:48.150Z,8.02
2023-04-24T07:50:17.644Z,6.72
2023-04-24T07:52:49.311Z,6.65
2023-04-24T07:55:16.087Z,6.32
2023-04-24T07:57:42.791Z,7.30
2023-04-24T08:00:12.240Z,7.05
2023-04-24T08:02:39.233Z,7.38
2023-04-24T08:05:06.758Z,7.57
2023-04-24T08:07:36.367Z,7.35
2023-04-24T08:10:06.348Z,7.07
2023-04-24T08:12:38.216Z,7.20
2023-04-24T08:15:08.489Z,7.40
2023-04-24T08:17:36.392Z,8.15
2023-04-24T08:20:06.276Z,7.93
2023-04-24T08:22:35.218Z,7.80
2023-04-24T08:25:04.033Z,7.38
2023-04-24T08:27:33.330Z,6.88
2023-04-24T08:30:00.823Z,7.38
2023-04-24T08:32:30.164Z,7.63
2023-04-24T08:34:59.679Z,7.68
2023-04-24T08:37:30.098Z,7.90
2023-04-24T08:39:59.483Z,6.73
2023-04-24T08:42:26.166Z,6.70
2023-04-24T08:44:55.023Z,7.93
2023-04-24T08:47:25.793Z,7.72
2023-04-24T08:49:54.707Z,6.80
2023-04-24T08:52:23.696Z,7.47
2023-04-24T08:54:50.502Z,7.03
2023-04-24T08:57:22.257Z,6.95
2023-04-24T08:59:48.941Z,6.53
2023-04-24T09:02:17.789Z,7.10
2023-04-24T09:04:44.693Z,6.68
2023-04-24T09:07:14.524Z,6.53
2023-04-24T09:09:41.402Z,6.88
2023-04-24T09:12:10.407Z,6.97
2023-04-24T09:14:46.233Z,7.47
2023-04-24T09:17:13.562Z,6.75
2023-04-24T09:19:41.514Z,6.38
2023-04-24T09:22:08.878Z,6.47
2023-04-24T09:24:36.038Z,6.70
2023-04-24T09:27:04.978Z,5.97
2023-04-24T09:29:33.841Z,5.93
2023-04-24T09:32:02.738Z,5.80
2023-04-24T09:34:29.529Z,6.03
2023-04-24T09:36:58.544Z,6.13
2023-04-24T09:39:27.347Z,6.95
2023-04-24T09:41:57.739Z,6.63
2023-04-24T09:44:25.741Z,4.93
2023-04-24T09:47:03.740Z,5.95
2023-04-24T09:49:31.396Z,6.20
2023-04-24T09:52:10.182Z,6.70
2023-04-24T09:54:40.499Z,6.05
2023-04-24T09:57:08.781Z,6.00
2023-04-24T09:59:39.623Z,6.30
2023-04-24T10:02:20.791Z,6.10
2023-04-24T10:07:27.225Z,6.10
2023-04-24T10:09:56.687Z,6.20
2023-04-24T10:12:26.004Z,6.03
2023-04-24T10:14:52.684Z,6.03
2023-04-24T10:17:21.526Z,6.07
2023-04-24T10:19:50.856Z,6.05
2023-04-24T10:22:17.792Z,6.72
2023-04-24T10:24:45.166Z,6.30
2023-04-24T10:27:11.909Z,6.00
2023-04-24T10:29:43.857Z,6.03
2023-04-24T10:32:11.078Z,5.75
2023-04-24T10:34:40.102Z,5.65
2023-04-24T10:37:06.802Z,6.88
2023-04-24T10:39:34.621Z,6.38
2023-04-24T10:42:01.888Z,6.32
2023-04-24T10:44:36.903Z,6.28
2023-04-24T10:47:03.781Z,6.38
2023-04-24T10:49:31.488Z,6.97
2023-04-24T10:52:06.836Z,6.18
2023-04-24T10:54:45.275Z,6.40
2023-04-24T10:57:24.079Z,6.60
2023-04-24T11:00:10.718Z,6.32
2023-04-24T11:02:38.474Z,5.95
2023-04-24T11:05:05.563Z,6.00
2023-04-24T11:08:11.406Z,5.57
2023-04-24T11:10:58.598Z,5.22
2023-04-24T11:13:29.136Z,5.32
2023-04-24T11:16:15.042Z,5.57
2023-04-24T11:18:46.346Z,5.72
2023-04-24T11:21:16.048Z,5.70
2023-04-24T11:23:43.038Z,6.32
2023-04-24T11:26:33.531Z,5.93
2023-04-24T11:29:11.936Z,6.13
2023-04-24T11:31:49.622Z,5.95
2023-04-24T11:34:17.426Z,5.40
2023-04-24T11:36:45.298Z,5.38
2023-04-24T11:39:14.263Z,5.28
2023-04-24T11:41:40.925Z,5.72
2023-04-24T11:44:08.974Z,5.22
2023-04-24T11:46:37.838Z,5.35
2023-04-24T11:49:07.477Z,5.40
2023-04-24T11:51:40.688Z,5.30
2023-04-24T11:54:14.907Z,5.32
2023-04-24T11:56:47.704Z,6.35
2023-04-24T11:59:16.578Z,5.80
2023-04-24T12:01:47.006Z,5.90
2023-04-24T12:04:17.381Z,4.43
2023-04-24T12:07:06.859Z,5.10
2023-04-24T12:09:43.900Z,5.57
2023-04-24T12:12:13.111Z,5.43
2023-04-24T12:15:01.625Z,5.35
2023-04-24T12:17:30.924Z,5.45
2023-04-24T12:20:04.488Z,5.63
2023-04-24T12:22:58.018Z,5.88
2023-04-24T12:25:34.168Z,6.00
2023-04-24T12:28:06.821Z,5.90
2023-04-24T12:30:35.310Z,4.78
2023-04-24T12:33:04.791Z,4.55
2023-04-24T12:35:34.706Z,4.88
2023-04-24T12:38:14.188Z,4.60
2023-04-24T12:40:44.020Z,4.60
2023-04-24T12:43:18.952Z,4.57
2023-04-24T12:45:48.385Z,4.97
2023-04-24T12:48:18.167Z,4.80
2023-04-24T12:50:47.825Z,4.80
2023-04-24T12:53:19.232Z,5.10
2023-04-24T12:55:53.553Z,4.82
2023-04-24T12:58:23.058Z,5.18
